createdAt,value
2024-01-30T00:02:19.150Z,95957.41
2024-01-30T00:04:46.182Z,95958.31
2024-01-30T00:07:13.203Z,95960.88
2024-01-30T00:09:41.141Z,95958.41
2024-01-30T00:12:08.352Z,95958.41
2024-01-30T00:14:35.418Z,95958.41
2024-01-30T00:17:02.366Z,95957.59
2024-01-30T00:19:29.407Z,95957.53
2024-01-30T00:21:56.496Z,95957.72
2024-01-30T00:24:23.534Z,95952.44
2024-01-30T00:26:50.525Z,95956.09
2024-01-30T00:29:20.902Z,95951.19
2024-01-30T00:31:47.991Z,95953.75
2024-01-30T00:34:15.244Z,95954.53
2024-01-30T00:36:42.633Z,95954.69
2024-01-30T00:39:10.940Z,95953.84
2024-01-30T00:41:37.992Z,95954.69
2024-01-30T00:44:05.450Z,95955.63
2024-01-30T00:46:32.658Z,95957.38
2024-01-30T00:48:59.753Z,95954.00
2024-01-30T00:51:26.930Z,95950.66
2024-01-30T00:53:54.204Z,95953.22
2024-01-30T00:56:21.269Z,95957.50
2024-01-30T00:58:48.337Z,95955.81
2024-01-30T01:01:16.258Z,95953.22
2024-01-30T01:03:45.259Z,95954.16
2024-01-30T01:06:12.482Z,95956.84
2024-01-30T01:08:39.596Z,95954.25
2024-01-30T01:11:07.057Z,95956.00
2024-01-30T01:13:34.159Z,95950.00
2024-01-30T01:16:01.304Z,95950.91
2024-01-30T01:18:28.769Z,95958.69
2024-01-30T01:20:56.024Z,95956.31
2024-01-30T01:23:23.117Z,95952.03
2024-01-30T01:25:50.240Z,95955.31
2024-01-30T01:28:17.783Z,95953.00
2024-01-30T01:30:45.112Z,95952.94
2024-01-30T01:33:14.859Z,95957.25
2024-01-30T01:35:42.117Z,95949.44
2024-01-30T01:38:09.265Z,95963.38
2024-01-30T01:40:36.387Z,95960.72
2024-01-30T01:43:06.611Z,95955.63
2024-01-30T01:45:34.099Z,95951.38
2024-01-30T01:48:01.267Z,95953.13
2024-01-30T01:50:28.732Z,95950.66
2024-01-30T01:52:56.867Z,95947.31
2024-01-30T01:55:26.287Z,95952.50
2024-01-30T01:57:55.266Z,95946.56
2024-01-30T02:00:23.113Z,95946.56
2024-01-30T02:02:51.309Z,95938.31
2024-01-30T02:05:18.704Z,95943.94
2024-01-30T02:07:46.002Z,95942.97
2024-01-30T02:10:13.543Z,95942.97
2024-01-30T02:12:41.656Z,95939.69
2024-01-30T02:15:09.503Z,95949.22
2024-01-30T02:17:36.794Z,95936.66
2024-01-30T02:20:04.982Z,95947.66
2024-01-30T02:22:36.294Z,95941.78
2024-01-30T02:25:03.848Z,95941.03
2024-01-30T02:27:31.050Z,95933.38
2024-01-30T02:29:58.114Z,95937.66
2024-01-30T02:32:25.184Z,95933.38
2024-01-30T02:34:52.237Z,95935.19
2024-01-30T02:37:19.449Z,95939.63
2024-01-30T02:39:46.723Z,95931.94
2024-01-30T02:42:13.843Z,95936.38
2024-01-30T02:44:40.935Z,95937.94
2024-01-30T02:47:07.988Z,95933.72
2024-01-30T02:49:35.327Z,95937.22
2024-01-30T02:52:02.562Z,95937.31
2024-01-30T02:54:32.005Z,95929.69
2024-01-30T02:56:59.393Z,95944.16
2024-01-30T02:59:26.628Z,95932.94
2024-01-30T03:01:53.815Z,95935.47
2024-01-30T03:04:21.166Z,95937.16
2024-01-30T03:06:49.030Z,95928.66
2024-01-30T03:09:19.121Z,95934.59
2024-01-30T03:11:46.599Z,95926.19
2024-01-30T03:14:13.839Z,95931.38
2024-01-30T03:16:41.006Z,95921.31
2024-01-30T03:19:11.486Z,95930.75
2024-01-30T03:21:38.890Z,95934.97
2024-01-30T03:24:06.567Z,95935.03
2024-01-30T03:26:33.886Z,95928.09
2024-01-30T03:29:01.030Z,95928.94
2024-01-30T03:31:28.162Z,95932.31
2024-01-30T03:33:55.550Z,95926.38
2024-01-30T03:36:22.752Z,95928.22
2024-01-30T03:38:50.090Z,95926.59
2024-01-30T03:41:17.364Z,95932.53
2024-01-30T03:43:44.481Z,95929.19
2024-01-30T03:46:13.864Z,95932.63
2024-01-30T03:48:41.382Z,95925.81
2024-01-30T03:51:08.761Z,95920.03
2024-01-30T03:53:35.787Z,95929.28
2024-01-30T03:56:02.911Z,95916.34
2024-01-30T03:58:29.968Z,95922.47
2024-01-30T04:00:57.141Z,95913.09
2024-01-30T04:03:24.226Z,95924.19
2024-01-30T04:05:52.442Z,95926.16
2024-01-30T04:08:19.403Z,95920.22
2024-01-30T04:10:46.493Z,95921.09
2024-01-30T04:13:13.660Z,95913.50
2024-01-30T04:15:41.093Z,95923.75
2024-01-30T04:18:08.321Z,95919.44
2024-01-30T04:20:35.330Z,95916.19
2024-01-30T04:23:02.318Z,95915.50
2024-01-30T04:25:29.373Z,95921.47
2024-01-30T04:27:56.424Z,95917.97
2024-01-30T04:30:23.437Z,95918.13
2024-01-30T04:32:50.417Z,95911.16
2024-01-30T04:35:17.766Z,95915.63
2024-01-30T04:37:44.930Z,95921.47
2024-01-30T04:40:12.499Z,95923.13
2024-01-30T04:42:39.598Z,95907.81
2024-01-30T04:45:07.881Z,95926.72
2024-01-30T04:47:34.945Z,95917.19
2024-01-30T04:50:03.377Z,95920.00
2024-01-30T04:52:30.453Z,95929.47
2024-01-30T04:54:57.426Z,95926.06
2024-01-30T04:57:24.586Z,95933.00
2024-01-30T04:59:51.533Z,95926.06
2024-01-30T05:02:18.563Z,95930.31
2024-01-30T05:04:45.862Z,95923.72
2024-01-30T05:07:12.929Z,95941.50
2024-01-30T05:09:39.892Z,95934.78
2024-01-30T05:12:08.129Z,95933.88
2024-01-30T05:14:35.154Z,95943.34
2024-01-30T05:17:02.130Z,95947.66
2024-01-30T05:19:29.176Z,95943.41
2024-01-30T05:21:56.201Z,95940.94
2024-01-30T05:24:24.294Z,95944.88
2024-01-30T05:26:52.492Z,95943.41
2024-01-30T05:29:19.454Z,95936.72
2024-01-30T05:31:46.471Z,95939.25
2024-01-30T05:34:13.496Z,95948.78
2024-01-30T05:36:40.757Z,95940.09
2024-01-30T05:39:09.388Z,95947.03
2024-01-30T05:41:36.438Z,95942.88
2024-01-30T05:44:03.542Z,95948.00
2024-01-30T05:46:30.614Z,95949.81
2024-01-30T05:48:57.672Z,95951.63
2024-01-30T05:51:25.171Z,95944.69
2024-01-30T05:53:52.260Z,95952.19
2024-01-30T05:56:19.284Z,95934.56
2024-01-30T05:58:46.314Z,95950.53
2024-01-30T06:01:13.373Z,95947.16
2024-01-30T06:03:40.654Z,95942.94
2024-01-30T06:06:07.830Z,95947.25
2024-01-30T06:08:34.780Z,95955.66
2024-01-30T06:11:02.234Z,95955.72
2024-01-30T06:13:29.225Z,95951.44
2024-01-30T06:15:56.267Z,95954.72
2024-01-30T06:18:23.234Z,95954.00
2024-01-30T06:20:50.209Z,95947.03
2024-01-30T06:23:17.243Z,95940.16
2024-01-30T06:25:44.250Z,95942.75
2024-01-30T06:28:11.657Z,95941.94
2024-01-30T06:30:38.632Z,95946.19
2024-01-30T06:33:05.928Z,95952.19
2024-01-30T06:35:33.004Z,95954.81
2024-01-30T06:38:00.179Z,95954.72
2024-01-30T06:40:27.173Z,95954.81
2024-01-30T06:42:54.251Z,95957.38
2024-01-30T06:45:21.315Z,95956.50
2024-01-30T06:47:48.289Z,95950.53
2024-01-30T06:50:15.835Z,95961.66
2024-01-30T06:52:42.983Z,95964.13
2024-01-30T06:55:10.731Z,95958.25
2024-01-30T06:57:37.738Z,95963.13
2024-01-30T07:00:05.387Z,95963.22
2024-01-30T07:02:32.361Z,95965.69
2024-01-30T07:04:59.453Z,95965.69
2024-01-30T07:07:26.603Z,95969.88
2024-01-30T07:09:58.214Z,95964.78
2024-01-30T07:12:27.164Z,95974.25
2024-01-30T07:14:54.683Z,95973.28
2024-01-30T07:17:21.672Z,95973.19
2024-01-30T07:19:48.810Z,95964.78
2024-01-30T07:22:16.151Z,95968.06
2024-01-30T07:24:48.430Z,95965.53
2024-01-30T07:27:16.332Z,95974.03
2024-01-30T07:29:43.362Z,95963.81
2024-01-30T07:32:10.289Z,95955.31
2024-01-30T07:34:45.047Z,95958.63
2024-01-30T07:37:17.403Z,95968.78
2024-01-30T07:39:44.460Z,95963.56
2024-01-30T07:42:11.469Z,95974.41
2024-01-30T07:44:38.409Z,95969.06
2024-01-30T07:47:06.892Z,95968.94
2024-01-30T07:49:34.068Z,95967.03
2024-01-30T07:52:01.248Z,95977.13
2024-01-30T07:54:28.320Z,95971.00
2024-01-30T07:56:58.107Z,95976.75
2024-01-30T07:59:26.128Z,95972.22
2024-01-30T08:01:53.266Z,95967.13
2024-01-30T08:04:20.411Z,95961.06
2024-01-30T08:06:47.657Z,95973.66
2024-01-30T08:09:15.910Z,95968.16
2024-01-30T08:11:42.849Z,95974.84
2024-01-30T08:14:09.852Z,95968.72
2024-01-30T08:16:36.838Z,95977.72
2024-01-30T08:19:04.393Z,95971.53
2024-01-30T08:21:31.475Z,95961.09
2024-01-30T08:23:58.509Z,95976.19
2024-01-30T08:26:25.560Z,95966.50
2024-01-30T08:28:55.019Z,95968.63
2024-01-30T08:31:22.151Z,95971.47
2024-01-30T08:36:17.949Z,95969.56
2024-01-30T08:38:45.142Z,95974.19
2024-01-30T08:41:12.129Z,95979.75
2024-01-30T08:43:39.094Z,95964.00
2024-01-30T08:46:06.095Z,95968.22
2024-01-30T08:48:33.246Z,95973.78
2024-01-30T08:51:00.499Z,95973.06
2024-01-30T08:53:27.466Z,95970.84
2024-01-30T08:55:54.441Z,95979.84
2024-01-30T08:58:21.431Z,95973.50
2024-01-30T09:00:48.643Z,95979.00
2024-01-30T09:03:15.667Z,95980.38
2024-01-30T09:05:42.742Z,95984.22
2024-01-30T09:08:09.832Z,95983.94
2024-01-30T09:10:36.878Z,95990.06
2024-01-30T09:13:04.529Z,95988.63
2024-01-30T09:15:31.578Z,95996.78
2024-01-30T09:17:58.537Z,95994.50
2024-01-30T09:20:25.502Z,95999.72
2024-01-30T09:22:52.485Z,95989.94
2024-01-30T09:25:22.305Z,95996.88
2024-01-30T09:27:49.324Z,95998.00
2024-01-30T09:30:16.586Z,95995.72
2024-01-30T09:32:45.004Z,95995.97
2024-01-30T09:35:12.330Z,95992.16
2024-01-30T09:37:39.445Z,95991.50
2024-01-30T09:40:07.925Z,95982.91
2024-01-30T09:42:37.545Z,95989.84
2024-01-30T09:45:06.479Z,95979.81
2024-01-30T09:47:45.009Z,95990.38
2024-01-30T09:50:14.484Z,95993.88
2024-01-30T09:52:41.959Z,95995.63
2024-01-30T09:55:09.675Z,95993.00
2024-01-30T09:57:37.623Z,95992.28
2024-01-30T10:00:10.352Z,95992.63
2024-01-30T10:02:40.949Z,95989.97
2024-01-30T10:05:09.881Z,95991.47
2024-01-30T10:07:37.219Z,95985.56
2024-01-30T10:10:06.364Z,95994.78
2024-01-30T10:12:33.703Z,95987.50
2024-01-30T10:15:00.652Z,95986.84
2024-01-30T10:17:33.228Z,95986.72
2024-01-30T10:20:02.227Z,95986.03
2024-01-30T10:22:30.030Z,95976.28
2024-01-30T10:24:57.579Z,95963.63
2024-01-30T10:27:28.848Z,95980.59
2024-01-30T10:29:55.849Z,95975.28
2024-01-30T10:32:23.182Z,95975.91
2024-01-30T10:34:50.508Z,95966.00
2024-01-30T10:37:19.049Z,95966.84
2024-01-30T10:39:47.425Z,95965.69
2024-01-30T10:42:17.254Z,95960.97
2024-01-30T10:45:14.124Z,95955.75
2024-01-30T10:47:45.554Z,95963.06
2024-01-30T10:50:12.904Z,95956.84
2024-01-30T10:52:41.372Z,95951.19
2024-01-30T10:55:08.737Z,95950.09
2024-01-30T10:57:39.927Z,95951.91
2024-01-30T11:00:14.147Z,95953.28
2024-01-30T11:02:43.364Z,95946.53
2024-01-30T11:05:10.619Z,95945.28
2024-01-30T11:07:37.756Z,95942.34
2024-01-30T11:10:05.949Z,95936.41
2024-01-30T11:12:35.097Z,95933.69
2024-01-30T11:15:14.974Z,95934.16
2024-01-30T11:17:45.917Z,95935.13
2024-01-30T11:20:36.969Z,95925.13
2024-01-30T11:23:07.486Z,95931.56
2024-01-30T11:25:35.052Z,95929.97
2024-01-30T11:28:02.238Z,95927.97
2024-01-30T11:30:33.591Z,95926.75
2024-01-30T11:33:06.388Z,95932.34
2024-01-30T11:35:40.845Z,95922.94
2024-01-30T11:38:11.133Z,95920.44
2024-01-30T11:40:42.202Z,95924.59
2024-01-30T11:43:10.746Z,95914.81
2024-01-30T11:45:38.855Z,95919.56
2024-01-30T11:48:07.025Z,95927.31
2024-01-30T11:50:35.708Z,95922.19
2024-01-30T11:53:03.571Z,95921.13
2024-01-30T11:55:34.759Z,95916.72
2024-01-30T11:58:03.977Z,95908.25
2024-01-30T12:00:32.676Z,95916.81
2024-01-30T12:03:02.405Z,95915.22
2024-01-30T12:05:30.798Z,95912.50
2024-01-30T12:08:02.257Z,95911.88
2024-01-30T12:10:30.305Z,95907.78
2024-01-30T12:12:58.251Z,95906.69
2024-01-30T12:15:26.012Z,95895.94
2024-01-30T12:17:53.246Z,95894.84
2024-01-30T12:20:23.475Z,95895.03
2024-01-30T12:22:51.870Z,95890.97
2024-01-30T12:25:22.136Z,95885.00
2024-01-30T12:27:51.845Z,95881.69
2024-01-30T12:30:21.782Z,95892.75
2024-01-30T12:32:52.617Z,95881.75
2024-01-30T12:35:22.205Z,95884.50
2024-01-30T12:37:51.355Z,95878.31
2024-01-30T12:40:19.844Z,95883.47
2024-01-30T12:42:50.759Z,95880.31
2024-01-30T12:45:23.096Z,95874.59
2024-01-30T12:47:50.446Z,95869.00
2024-01-30T12:50:18.727Z,95867.19
2024-01-30T12:52:49.447Z,95872.03
2024-01-30T12:55:17.982Z,95873.16
2024-01-30T12:57:45.102Z,95877.75
2024-01-30T13:00:12.398Z,95869.75
2024-01-30T13:02:39.417Z,95876.97
2024-01-30T13:05:07.277Z,95865.03
2024-01-30T13:07:34.915Z,95861.75
2024-01-30T13:10:04.469Z,95867.19
2024-01-30T13:12:33.833Z,95866.97
2024-01-30T13:15:05.887Z,95862.28
2024-01-30T13:17:33.658Z,95873.34
2024-01-30T13:20:07.691Z,95877.97
2024-01-30T13:22:40.442Z,95872.34
2024-01-30T13:25:08.944Z,95866.94
2024-01-30T13:27:37.536Z,95863.50
2024-01-30T13:30:05.568Z,95871.94
2024-01-30T13:32:32.615Z,95865.41
2024-01-30T13:34:59.843Z,95860.72
2024-01-30T13:37:26.979Z,95863.06
2024-01-30T13:39:54.153Z,95874.56
2024-01-30T13:42:21.147Z,95875.78
2024-01-30T13:44:48.142Z,95872.03
2024-01-30T13:47:15.240Z,95880.47
2024-01-30T13:49:42.413Z,95872.00
2024-01-30T13:52:09.886Z,95871.56
2024-01-30T13:54:36.936Z,95869.09
2024-01-30T13:57:04.109Z,95868.69
2024-01-30T13:59:31.291Z,95877.28
2024-01-30T14:01:58.289Z,95873.13
2024-01-30T14:04:25.388Z,95877.84
2024-01-30T14:06:57.474Z,95867.91
2024-01-30T14:09:33.637Z,95874.28
2024-01-30T14:12:00.763Z,95875.25
2024-01-30T14:14:27.751Z,95877.88
2024-01-30T14:16:54.737Z,95880.50
2024-01-30T14:19:23.201Z,95876.22
2024-01-30T14:21:50.341Z,95875.94
2024-01-30T14:24:17.310Z,95886.59
2024-01-30T14:26:45.571Z,95872.47
2024-01-30T14:29:12.588Z,95880.63
2024-01-30T14:31:39.599Z,95890.47
2024-01-30T14:34:06.741Z,95889.38
2024-01-30T14:36:33.919Z,95892.84
2024-01-30T14:39:00.899Z,95900.47
2024-01-30T14:41:27.942Z,95895.59
2024-01-30T14:43:54.908Z,95893.53
2024-01-30T14:46:23.064Z,95894.66
2024-01-30T14:48:52.788Z,95895.63
2024-01-30T14:51:19.877Z,95892.56
2024-01-30T14:53:46.985Z,95894.50
2024-01-30T14:56:14.262Z,95889.19
2024-01-30T14:58:41.502Z,95891.13
2024-01-30T15:01:08.611Z,95895.94
2024-01-30T15:03:37.101Z,95899.09
2024-01-30T15:06:06.292Z,95899.94
2024-01-30T15:08:33.821Z,95898.53
2024-01-30T15:11:01.009Z,95892.84
2024-01-30T15:13:28.108Z,95895.06
2024-01-30T15:15:55.270Z,95904.72
2024-01-30T15:18:22.377Z,95900.97
2024-01-30T15:20:49.427Z,95898.56
2024-01-30T15:23:17.200Z,95904.75
2024-01-30T15:25:45.182Z,95904.16
2024-01-30T15:28:12.293Z,95898.63
2024-01-30T15:30:39.302Z,95909.66
2024-01-30T15:33:06.772Z,95906.69
2024-01-30T15:35:33.977Z,95912.28
2024-01-30T15:38:01.062Z,95910.09
2024-01-30T15:40:28.377Z,95915.47
2024-01-30T15:42:55.540Z,95915.56
2024-01-30T15:45:22.520Z,95924.19
2024-01-30T15:47:49.551Z,95924.91
2024-01-30T15:50:16.693Z,95925.81
2024-01-30T15:52:43.859Z,95935.25
2024-01-30T15:55:10.901Z,95932.75
2024-01-30T15:57:37.922Z,95936.00
2024-01-30T16:00:05.811Z,95942.44
2024-01-30T16:02:38.853Z,95952.59
2024-01-30T16:05:07.186Z,95951.53
2024-01-30T16:07:34.965Z,95964.41
2024-01-30T16:10:03.227Z,95964.63
2024-01-30T16:12:30.389Z,95967.03
2024-01-30T16:14:57.351Z,95975.81
2024-01-30T16:17:24.409Z,95977.59
2024-01-30T16:19:51.770Z,95976.50
2024-01-30T16:22:19.548Z,95979.59
2024-01-30T16:24:48.437Z,95983.84
2024-01-30T16:27:15.585Z,95993.00
2024-01-30T16:29:42.610Z,95987.63
2024-01-30T16:32:12.644Z,95986.34
2024-01-30T16:34:39.612Z,95987.66
2024-01-30T16:37:07.325Z,95982.13
2024-01-30T16:39:34.490Z,95988.75
2024-01-30T16:42:01.430Z,95986.69
2024-01-30T16:44:28.369Z,95997.50
2024-01-30T16:46:55.367Z,95989.47
2024-01-30T16:49:22.531Z,95983.97
2024-01-30T16:51:49.580Z,95995.78
2024-01-30T16:54:16.667Z,95986.31
2024-01-30T16:56:49.328Z,95991.88
2024-01-30T16:59:17.496Z,95987.28
2024-01-30T17:01:46.044Z,95990.28
2024-01-30T17:04:13.587Z,95998.75
2024-01-30T17:06:40.629Z,96009.63
2024-01-30T17:09:08.681Z,96013.41
2024-01-30T17:11:35.635Z,96011.31
2024-01-30T17:14:02.893Z,96016.94
2024-01-30T17:16:29.862Z,96010.50
2024-01-30T17:18:58.106Z,96015.28
2024-01-30T17:21:26.428Z,96019.03
2024-01-30T17:23:53.379Z,96015.06
2024-01-30T17:26:21.942Z,96011.94
2024-01-30T17:28:49.031Z,96026.03
2024-01-30T17:31:16.051Z,96028.00
2024-01-30T17:33:43.448Z,96022.16
2024-01-30T17:36:10.612Z,96027.88
2024-01-30T17:38:37.606Z,96037.88
2024-01-30T17:41:11.845Z,96034.00
2024-01-30T17:43:39.889Z,96034.41
2024-01-30T17:46:08.154Z,96038.13
2024-01-30T17:48:35.413Z,96040.00
2024-01-30T17:51:04.392Z,96042.06
2024-01-30T17:53:31.500Z,96052.06
2024-01-30T17:56:02.707Z,96050.59
2024-01-30T17:58:29.998Z,96053.38
2024-01-30T18:00:58.307Z,96051.06
2024-01-30T18:03:25.380Z,96055.94
2024-01-30T18:05:53.076Z,96053.81
2024-01-30T18:08:20.067Z,96047.31
2024-01-30T18:10:47.272Z,96058.78
2024-01-30T18:13:14.899Z,96063.84
2024-01-30T18:15:41.904Z,96068.38
2024-01-30T18:18:09.006Z,96070.06
2024-01-30T18:20:36.005Z,96077.78
2024-01-30T18:23:03.142Z,96071.28
2024-01-30T18:25:30.621Z,96071.34
2024-01-30T18:27:57.732Z,96071.72
2024-01-30T18:30:24.776Z,96073.72
2024-01-30T18:32:53.391Z,96079.09
2024-01-30T18:35:21.034Z,96075.75
2024-01-30T18:37:48.108Z,96064.97
2024-01-30T18:40:17.036Z,96069.13
2024-01-30T18:42:45.762Z,96070.81
2024-01-30T18:45:13.274Z,96078.16
2024-01-30T18:47:40.318Z,96075.16
2024-01-30T18:50:08.220Z,96075.00
2024-01-30T18:52:35.389Z,96075.91
2024-01-30T18:55:03.932Z,96086.53
2024-01-30T18:57:31.043Z,96094.31
2024-01-30T18:59:57.996Z,96089.00
2024-01-30T19:02:25.092Z,96094.31
2024-01-30T19:04:53.669Z,96089.94
2024-01-30T19:07:21.679Z,96089.13
2024-01-30T19:09:49.979Z,96090.97
2024-01-30T19:12:17.018Z,96086.69
2024-01-30T19:14:43.987Z,96088.38
2024-01-30T19:17:11.046Z,96085.03
2024-01-30T19:19:38.182Z,96087.72
2024-01-30T19:22:05.499Z,96094.56
2024-01-30T19:24:32.535Z,96100.81
2024-01-30T19:26:59.491Z,96094.13
2024-01-30T19:29:26.497Z,96102.59
2024-01-30T19:31:53.538Z,96105.09
2024-01-30T19:34:20.566Z,96089.81
2024-01-30T19:36:47.900Z,96101.56
2024-01-30T19:39:14.944Z,96101.56
2024-01-30T19:41:45.050Z,96095.69
2024-01-30T19:44:12.468Z,96104.81
2024-01-30T19:46:39.525Z,96092.78
2024-01-30T19:49:06.786Z,96095.38
2024-01-30T19:51:33.864Z,96092.97
2024-01-30T19:54:00.800Z,96093.72
2024-01-30T19:56:27.793Z,96097.44
2024-01-30T19:58:55.152Z,96100.28
2024-01-30T20:01:23.729Z,96087.63
2024-01-30T20:03:50.804Z,96101.16
2024-01-30T20:06:17.915Z,96103.00
2024-01-30T20:08:44.979Z,96105.75
2024-01-30T20:11:16.362Z,96096.09
2024-01-30T20:13:43.504Z,96094.25
2024-01-30T20:16:12.086Z,96102.25
2024-01-30T20:18:39.207Z,96108.38
2024-01-30T20:21:06.194Z,96100.84
2024-01-30T20:23:33.521Z,96101.88
2024-01-30T20:26:01.430Z,96093.28
2024-01-30T20:28:28.608Z,96099.44
2024-01-30T20:30:55.742Z,96101.28
2024-01-30T20:33:22.990Z,96093.47
2024-01-30T20:35:50.070Z,96093.63
2024-01-30T20:38:17.518Z,96100.59
2024-01-30T20:40:44.695Z,96093.06
2024-01-30T20:43:12.247Z,96095.84
2024-01-30T20:45:39.310Z,96098.88
2024-01-30T20:48:07.397Z,96105.28
2024-01-30T20:50:34.433Z,96107.97
2024-01-30T20:53:01.454Z,96113.31
2024-01-30T20:55:28.451Z,96114.34
2024-01-30T20:57:55.460Z,96115.44
2024-01-30T21:00:22.717Z,96116.53
2024-01-30T21:02:49.739Z,96122.75
2024-01-30T21:05:20.178Z,96122.97
2024-01-30T21:07:47.280Z,96124.81
2024-01-30T21:10:14.775Z,96123.38
2024-01-30T21:12:41.744Z,96129.94
2024-01-30T21:15:10.995Z,96122.81
2024-01-30T21:17:38.399Z,96132.25
2024-01-30T21:20:06.256Z,96131.50
2024-01-30T21:22:33.393Z,96132.59
2024-01-30T21:25:00.508Z,96138.81
2024-01-30T21:27:27.833Z,96132.94
2024-01-30T21:29:54.778Z,96127.25
2024-01-30T21:32:21.996Z,96133.59
2024-01-30T21:34:49.466Z,96133.16
2024-01-30T21:37:16.911Z,96124.00
2024-01-30T21:39:44.092Z,96122.34
2024-01-30T21:42:11.121Z,96114.88
2024-01-30T21:44:38.114Z,96121.16
2024-01-30T21:47:05.117Z,96126.63
2024-01-30T21:49:32.139Z,96127.72
2024-01-30T21:51:59.179Z,96134.16
2024-01-30T21:54:26.729Z,96124.84
2024-01-30T21:56:53.698Z,96122.56
2024-01-30T21:59:20.646Z,96125.31
2024-01-30T22:01:47.724Z,96107.47
2024-01-30T22:04:14.705Z,96115.25
2024-01-30T22:06:41.715Z,96109.44
2024-01-30T22:09:08.683Z,96121.66
2024-01-30T22:11:35.746Z,96112.28
2024-01-30T22:14:02.810Z,96121.19
2024-01-30T22:16:29.860Z,96117.06
2024-01-30T22:18:56.957Z,96124.84
2024-01-30T22:21:23.926Z,96119.97
2024-01-30T22:23:50.886Z,96124.41
2024-01-30T22:26:17.826Z,96117.56
2024-01-30T22:28:44.932Z,96120.34
2024-01-30T22:31:13.138Z,96121.50
2024-01-30T22:33:40.170Z,96125.78
2024-01-30T22:36:08.533Z,96125.16
2024-01-30T22:38:35.689Z,96126.97
2024-01-30T22:41:02.655Z,96128.81
2024-01-30T22:43:33.658Z,96129.94
2024-01-30T22:46:01.180Z,96134.53
2024-01-30T22:48:28.553Z,96139.63
2024-01-30T22:50:55.594Z,96140.69
2024-01-30T22:53:22.693Z,96131.22
2024-01-30T22:55:49.646Z,96123.22
2024-01-30T22:58:16.922Z,96138.38
2024-01-30T23:00:43.905Z,96143.72
2024-01-30T23:03:13.581Z,96140.38
2024-01-30T23:05:41.378Z,96143.03
2024-01-30T23:08:08.365Z,96145.91
2024-01-30T23:10:35.594Z,96152.69
2024-01-30T23:13:03.593Z,96149.38
2024-01-30T23:15:30.986Z,96141.56
2024-01-30T23:17:58.972Z,96142.78
2024-01-30T23:20:26.071Z,96152.97
2024-01-30T23:22:53.110Z,96151.31
2024-01-30T23:25:20.251Z,96149.78
2024-01-30T23:27:47.242Z,96158.44
2024-01-30T23:30:14.533Z,96147.25
2024-01-30T23:32:43.419Z,96149.78
2024-01-30T23:35:11.563Z,96136.25
2024-01-30T23:37:40.960Z,96142.06
2024-01-30T23:40:13.800Z,96145.44
2024-01-30T23:42:41.160Z,96149.63
2024-01-30T23:45:08.640Z,96144.59
2024-01-30T23:47:35.627Z,96143.31
2024-01-30T23:50:02.849Z,96137.44
2024-01-30T23:52:29.908Z,96140.66
2024-01-30T23:54:56.928Z,96137.13
2024-01-30T23:57:23.989Z,96132.88
2024-01-30T23:59:51.170Z,96136.06
